createdAt,value
2023-04-27T00:00:40.659Z,7.87
2023-04-27T00:01:40.649Z,7.85
2023-04-27T00:02:40.790Z,7.90
2023-04-27T00:03:40.663Z,7.90
2023-04-27T00:04:40.844Z,7.85
2023-04-27T00:05:40.639Z,7.84
2023-04-27T00:06:40.624Z,7.81
2023-04-27T00:07:40.578Z,7.80
2023-04-27T00:08:40.564Z,7.78
2023-04-27T00:09:40.556Z,7.84
2023-04-27T00:10:40.538Z,7.85
2023-04-27T00:11:40.540Z,7.78
2023-04-27T00:12:40.505Z,7.77
2023-04-27T00:13:40.494Z,7.72
2023-04-27T00:14:40.581Z,7.69
2023-04-27T00:15:40.469Z,7.70
2023-04-27T00:16:40.523Z,7.72
2023-04-27T00:17:40.536Z,7.74
2023-04-27T00:18:40.469Z,7.69
2023-04-27T00:19:40.455Z,7.69
2023-04-27T00:20:40.486Z,7.62
2023-04-27T00:21:40.408Z,7.61
2023-04-27T00:22:40.394Z,7.55
2023-04-27T00:23:40.384Z,7.53
2023-04-27T00:24:40.397Z,7.48
2023-04-27T00:25:40.383Z,7.48
2023-04-27T00:26:40.376Z,7.46
2023-04-27T00:27:40.372Z,7.44
2023-04-27T00:28:40.417Z,7.47
2023-04-27T00:29:40.316Z,7.46
2023-04-27T00:30:40.458Z,7.41
2023-04-27T00:31:40.372Z,7.37
2023-04-27T00:32:40.365Z,7.36
2023-04-27T00:33:40.296Z,7.36
2023-04-27T00:34:40.334Z,7.36
2023-04-27T00:35:40.321Z,7.36
2023-04-27T00:36:40.287Z,7.29
2023-04-27T00:37:40.379Z,7.25
2023-04-27T00:38:40.360Z,7.22
2023-04-27T00:39:40.211Z,7.19
2023-04-27T00:40:40.238Z,7.14
2023-04-27T00:41:40.251Z,7.13
2023-04-27T00:42:40.205Z,7.11
2023-04-27T00:43:40.269Z,7.11
2023-04-27T00:44:40.172Z,7.11
2023-04-27T00:45:40.213Z,7.15
2023-04-27T00:46:40.239Z,7.07
2023-04-27T00:47:40.145Z,7.07
2023-04-27T00:48:40.116Z,7.05
2023-04-27T00:49:40.116Z,7.04
2023-04-27T00:50:40.115Z,7.01
2023-04-27T00:51:40.088Z,7.03
2023-04-27T00:52:40.119Z,7.03
2023-04-27T00:53:40.091Z,7.00
2023-04-27T00:54:40.048Z,6.97
2023-04-27T00:55:40.061Z,6.93
2023-04-27T00:56:40.039Z,6.95
2023-04-27T00:57:40.024Z,6.92
2023-04-27T00:58:40.022Z,6.90
2023-04-27T00:59:40.015Z,6.93
2023-04-27T01:00:40.001Z,6.92
2023-04-27T01:01:39.996Z,6.89
2023-04-27T01:02:40.179Z,6.87
2023-04-27T01:03:40.101Z,6.89
2023-04-27T01:04:39.990Z,6.86
2023-04-27T01:05:39.984Z,6.86
2023-04-27T01:06:40.007Z,6.83
2023-04-27T01:07:39.943Z,6.82
2023-04-27T01:08:39.935Z,6.82
2023-04-27T01:09:39.903Z,6.80
2023-04-27T01:10:39.966Z,6.77
2023-04-27T01:11:39.951Z,6.77
2023-04-27T01:12:39.843Z,6.72
2023-04-27T01:13:39.894Z,6.68
2023-04-27T01:14:39.840Z,6.67
2023-04-27T01:15:39.851Z,6.70
2023-04-27T01:16:39.873Z,6.68
2023-04-27T01:17:39.996Z,6.68
2023-04-27T01:18:39.822Z,6.65
2023-04-27T01:19:39.905Z,6.65
2023-04-27T01:20:39.852Z,6.65
2023-04-27T01:21:39.765Z,6.64
2023-04-27T01:22:39.778Z,6.64
2023-04-27T01:23:39.758Z,6.60
2023-04-27T01:24:39.730Z,6.59
2023-04-27T01:25:39.749Z,6.57
2023-04-27T01:26:39.689Z,6.59
2023-04-27T01:27:39.711Z,6.56
2023-04-27T01:28:39.691Z,6.56
2023-04-27T01:29:39.707Z,6.60
2023-04-27T01:30:39.694Z,6.56
2023-04-27T01:31:39.738Z,6.54
2023-04-27T01:32:39.676Z,6.50
2023-04-27T01:33:39.636Z,6.50
2023-04-27T01:34:39.630Z,6.46
2023-04-27T01:35:39.634Z,6.50
2023-04-27T01:36:39.614Z,6.43
2023-04-27T01:37:39.606Z,6.41
2023-04-27T01:38:39.584Z,6.38
2023-04-27T01:39:39.565Z,6.39
2023-04-27T01:40:39.581Z,6.39
2023-04-27T01:41:39.551Z,6.36
2023-04-27T01:42:39.647Z,6.32
2023-04-27T01:43:39.555Z,6.31
2023-04-27T01:44:39.505Z,6.31
2023-04-27T01:45:39.501Z,6.34
2023-04-27T01:46:39.533Z,6.26
2023-04-27T01:47:39.523Z,6.29
2023-04-27T01:48:39.458Z,6.29
2023-04-27T01:49:39.472Z,6.26
2023-04-27T01:50:39.477Z,6.20
2023-04-27T01:51:39.453Z,6.20
2023-04-27T01:52:39.556Z,6.20
2023-04-27T01:53:39.494Z,6.17
2023-04-27T01:54:39.458Z,6.19
2023-04-27T01:55:39.599Z,6.17
2023-04-27T01:56:39.438Z,6.13
2023-04-27T01:57:39.481Z,6.17
2023-04-27T01:58:39.367Z,6.20
2023-04-27T01:59:39.438Z,6.16
2023-04-27T02:00:39.386Z,6.12
2023-04-27T02:01:39.442Z,6.12
2023-04-27T02:02:39.498Z,6.06
2023-04-27T02:03:39.479Z,6.05
2023-04-27T02:04:39.437Z,5.98
2023-04-27T02:05:39.402Z,5.95
2023-04-27T02:06:39.310Z,5.95
2023-04-27T02:07:39.288Z,5.97
2023-04-27T02:08:39.280Z,5.97
2023-04-27T02:09:39.255Z,5.97
2023-04-27T02:10:39.259Z,5.94
2023-04-27T02:11:39.241Z,5.91
2023-04-27T02:12:39.216Z,5.88
2023-04-27T02:13:39.269Z,5.88
2023-04-27T02:14:39.209Z,5.91
2023-04-27T02:15:39.227Z,5.92
2023-04-27T02:16:39.319Z,5.88
2023-04-27T02:17:39.213Z,5.84
2023-04-27T02:18:39.176Z,5.87
2023-04-27T02:19:39.173Z,5.80
2023-04-27T02:20:39.135Z,5.81
2023-04-27T02:21:39.123Z,5.88
2023-04-27T02:22:39.137Z,5.83
2023-04-27T02:23:39.112Z,5.77
2023-04-27T02:24:39.128Z,5.76
2023-04-27T02:25:39.172Z,5.74
2023-04-27T02:26:39.163Z,5.72
2023-04-27T02:27:39.175Z,5.69
2023-04-27T02:28:39.101Z,5.69
2023-04-27T02:29:39.223Z,5.69
2023-04-27T02:30:39.033Z,5.64
2023-04-27T02:31:39.010Z,5.61
2023-04-27T02:32:39.029Z,5.58
2023-04-27T02:33:38.992Z,5.65
2023-04-27T02:34:39.019Z,5.61
2023-04-27T02:35:38.985Z,5.61
2023-04-27T02:36:38.952Z,5.64
2023-04-27T02:37:38.956Z,5.62
2023-04-27T02:38:39.006Z,5.61
2023-04-27T02:39:38.929Z,5.67
2023-04-27T02:40:38.921Z,5.59
2023-04-27T02:41:38.935Z,5.56
2023-04-27T02:42:39.116Z,5.51
2023-04-27T02:43:38.888Z,5.52
2023-04-27T02:44:38.944Z,5.52
2023-04-27T02:45:38.924Z,5.49
2023-04-27T02:46:38.910Z,5.47
2023-04-27T02:47:38.913Z,5.47
2023-04-27T02:48:38.833Z,5.46
2023-04-27T02:49:38.881Z,5.43
2023-04-27T02:50:38.813Z,5.40
2023-04-27T02:51:38.824Z,5.38
2023-04-27T02:52:38.803Z,5.38
2023-04-27T02:53:38.846Z,5.38
2023-04-27T02:54:38.833Z,5.37
2023-04-27T02:55:38.774Z,5.36
2023-04-27T02:56:38.765Z,5.36
2023-04-27T02:57:38.798Z,5.36
2023-04-27T02:58:38.866Z,5.33
2023-04-27T02:59:38.722Z,5.28
2023-04-27T03:00:38.758Z,5.26
2023-04-27T03:01:38.898Z,5.29
2023-04-27T03:02:38.884Z,5.28
2023-04-27T03:03:39.048Z,5.25
2023-04-27T03:04:38.971Z,5.25
2023-04-27T03:05:38.687Z,5.23
2023-04-27T03:06:38.632Z,5.23
2023-04-27T03:07:38.670Z,5.23
2023-04-27T03:08:38.625Z,5.23
2023-04-27T03:09:38.622Z,5.19
2023-04-27T03:10:38.667Z,5.20
2023-04-27T03:11:38.597Z,5.23
2023-04-27T03:12:38.621Z,5.16
2023-04-27T03:13:38.601Z,5.16
2023-04-27T03:14:38.558Z,5.10
2023-04-27T03:15:38.570Z,5.04
2023-04-27T03:16:38.553Z,5.07
2023-04-27T03:17:38.575Z,5.10
2023-04-27T03:18:38.539Z,5.07
2023-04-27T03:19:38.534Z,5.02
2023-04-27T03:20:38.550Z,5.00
2023-04-27T03:21:38.547Z,5.00
2023-04-27T03:22:38.467Z,5.00
2023-04-27T03:23:38.546Z,5.02
2023-04-27T03:24:38.548Z,4.98
2023-04-27T03:25:38.529Z,5.00
2023-04-27T03:26:38.536Z,4.98
2023-04-27T03:27:38.459Z,4.97
2023-04-27T03:28:38.434Z,4.97
2023-04-27T03:29:38.781Z,4.95
2023-04-27T03:30:38.425Z,4.94
2023-04-27T03:31:38.361Z,4.94
2023-04-27T03:32:38.353Z,4.89
2023-04-27T03:33:38.442Z,4.89
2023-04-27T03:34:38.303Z,4.89
2023-04-27T03:35:38.275Z,4.84
2023-04-27T03:36:38.274Z,4.84
2023-04-27T03:37:38.285Z,4.84
2023-04-27T03:38:38.272Z,4.84
2023-04-27T03:39:38.255Z,4.84
2023-04-27T03:40:38.312Z,4.83
2023-04-27T03:41:38.272Z,4.84
2023-04-27T03:42:38.248Z,4.84
2023-04-27T03:43:38.328Z,4.82
2023-04-27T03:44:38.200Z,4.76
2023-04-27T03:45:38.213Z,4.78
2023-04-27T03:46:38.232Z,4.74
2023-04-27T03:47:38.181Z,4.75
2023-04-27T03:48:38.143Z,4.75
2023-04-27T03:49:38.133Z,4.76
2023-04-27T03:50:38.134Z,4.70
2023-04-27T03:51:38.155Z,4.67
2023-04-27T03:52:38.068Z,4.68
2023-04-27T03:53:38.142Z,4.71
2023-04-27T03:54:38.114Z,4.71
2023-04-27T03:55:38.075Z,4.74
2023-04-27T03:56:38.073Z,4.71
2023-04-27T03:57:38.038Z,4.71
2023-04-27T03:58:38.076Z,4.70
2023-04-27T03:59:38.052Z,4.68
2023-04-27T04:00:38.054Z,4.67
2023-04-27T04:01:38.133Z,4.67
2023-04-27T04:02:38.188Z,4.64
2023-04-27T04:03:38.079Z,4.64
2023-04-27T04:04:38.262Z,4.66
2023-04-27T04:05:37.984Z,4.64
2023-04-27T04:06:37.942Z,4.64
2023-04-27T04:07:37.938Z,4.66
2023-04-27T04:08:37.929Z,4.63
2023-04-27T04:09:37.952Z,4.60
2023-04-27T04:10:37.963Z,4.61
2023-04-27T04:11:37.974Z,4.61
2023-04-27T04:12:37.896Z,4.58
2023-04-27T04:13:37.874Z,4.57
2023-04-27T04:14:37.862Z,4.57
2023-04-27T04:15:38.004Z,4.57
2023-04-27T04:16:37.891Z,4.56
2023-04-27T04:17:37.867Z,4.52
2023-04-27T04:18:37.823Z,4.53
2023-04-27T04:19:37.810Z,4.52
2023-04-27T04:20:37.826Z,4.53
2023-04-27T04:21:37.816Z,4.56
2023-04-27T04:22:37.779Z,4.63
2023-04-27T04:23:39.010Z,4.60
2023-04-27T04:24:37.741Z,4.56
2023-04-27T04:25:37.752Z,4.56
2023-04-27T04:26:37.730Z,4.56
2023-04-27T04:27:37.732Z,4.56
2023-04-27T04:28:37.714Z,4.52
2023-04-27T04:29:37.755Z,4.53
2023-04-27T04:30:37.710Z,4.56
2023-04-27T04:31:37.764Z,4.58
2023-04-27T04:32:37.945Z,4.57
2023-04-27T04:33:37.670Z,4.57
2023-04-27T04:34:37.637Z,4.56
2023-04-27T04:35:37.656Z,4.56
2023-04-27T04:36:37.745Z,4.56
2023-04-27T04:37:37.725Z,4.58
2023-04-27T04:38:37.721Z,4.56
2023-04-27T04:39:37.682Z,4.56
2023-04-27T04:40:37.646Z,4.56
2023-04-27T04:41:37.633Z,4.60
2023-04-27T04:42:37.587Z,4.60
2023-04-27T04:43:37.605Z,4.58
2023-04-27T04:44:37.640Z,4.56
2023-04-27T04:45:37.552Z,4.57
2023-04-27T04:46:37.659Z,4.58
2023-04-27T04:47:37.525Z,4.63
2023-04-27T04:48:37.542Z,4.61
2023-04-27T04:49:37.550Z,4.63
2023-04-27T04:50:37.495Z,4.60
2023-04-27T04:51:37.467Z,4.63
2023-04-27T04:52:37.502Z,4.61
2023-04-27T04:53:37.449Z,4.66
2023-04-27T04:54:37.488Z,4.68
2023-04-27T04:55:37.464Z,4.68
2023-04-27T04:56:37.460Z,4.70
2023-04-27T04:57:37.407Z,4.67
2023-04-27T04:58:37.410Z,4.70
2023-04-27T04:59:37.434Z,4.70
2023-04-27T05:00:37.385Z,4.70
2023-04-27T05:01:37.458Z,4.76
2023-04-27T05:02:37.497Z,4.78
2023-04-27T05:03:37.624Z,4.82
2023-04-27T05:04:37.381Z,4.86
2023-04-27T05:05:37.347Z,4.84
2023-04-27T05:06:37.399Z,4.79
2023-04-27T05:07:37.323Z,4.86
2023-04-27T05:08:37.335Z,4.84
2023-04-27T05:09:37.316Z,4.84
2023-04-27T05:10:37.249Z,4.83
2023-04-27T05:11:37.258Z,4.86
2023-04-27T05:12:37.280Z,4.87
2023-04-27T05:13:37.245Z,4.90
2023-04-27T05:14:37.211Z,4.95
2023-04-27T05:15:37.198Z,4.94
2023-04-27T05:16:37.413Z,4.95
2023-04-27T05:17:37.201Z,4.98
2023-04-27T05:18:37.182Z,4.95
2023-04-27T05:19:37.177Z,5.00
2023-04-27T05:20:37.192Z,4.97
2023-04-27T05:21:37.171Z,5.02
2023-04-27T05:22:37.143Z,5.04
2023-04-27T05:23:37.214Z,5.15
2023-04-27T05:24:37.138Z,5.25
2023-04-27T05:25:37.163Z,5.31
2023-04-27T05:26:37.079Z,5.33
2023-04-27T05:27:37.068Z,5.38
2023-04-27T05:28:37.099Z,5.47
2023-04-27T05:29:37.320Z,5.58
2023-04-27T05:30:37.102Z,5.72
2023-04-27T05:31:37.133Z,5.88
2023-04-27T05:32:37.083Z,5.98
2023-04-27T05:33:37.068Z,6.12
2023-04-27T05:34:37.188Z,6.19
2023-04-27T05:35:37.008Z,6.26
2023-04-27T05:36:36.998Z,6.32
2023-04-27T05:37:36.985Z,6.36
2023-04-27T05:38:36.999Z,6.44
2023-04-27T05:39:37.058Z,6.57
2023-04-27T05:40:37.016Z,6.65
2023-04-27T05:41:36.979Z,6.75
2023-04-27T05:42:37.066Z,6.80
2023-04-27T05:43:36.901Z,6.93
2023-04-27T05:44:37.039Z,7.08
2023-04-27T05:45:36.972Z,7.21
2023-04-27T05:46:38.689Z,7.40
2023-04-27T05:47:36.938Z,7.61
2023-04-27T05:48:36.869Z,7.83
2023-04-27T05:49:36.868Z,8.02
2023-04-27T05:50:36.884Z,8.23
2023-04-27T05:51:36.845Z,8.36
2023-04-27T05:52:38.228Z,8.56
2023-04-27T05:53:36.810Z,8.74
2023-04-27T05:54:36.800Z,8.90
2023-04-27T05:55:36.817Z,9.08
2023-04-27T05:56:36.810Z,9.21
2023-04-27T05:57:36.788Z,9.33
2023-04-27T05:58:36.873Z,9.45
2023-04-27T05:59:36.745Z,9.62
2023-04-27T06:00:36.891Z,9.74
2023-04-27T06:01:36.823Z,9.87
2023-04-27T06:02:36.903Z,9.95
2023-04-27T06:03:36.842Z,10.12
2023-04-27T06:04:36.762Z,10.24
2023-04-27T06:05:36.859Z,10.36
2023-04-27T06:06:36.720Z,10.48
2023-04-27T06:07:36.718Z,10.65
2023-04-27T06:08:36.701Z,10.77
2023-04-27T06:09:36.633Z,10.82
2023-04-27T06:10:36.717Z,10.87
2023-04-27T06:11:36.625Z,10.98
2023-04-27T06:12:36.595Z,11.10
2023-04-27T06:13:36.582Z,11.15
2023-04-27T06:14:36.625Z,11.19
2023-04-27T06:15:36.704Z,11.35
2023-04-27T06:16:36.602Z,11.52
2023-04-27T06:17:36.721Z,11.65
2023-04-27T06:18:36.565Z,11.63
2023-04-27T06:19:36.519Z,11.73
2023-04-27T06:20:36.524Z,11.81
2023-04-27T06:21:36.514Z,11.88
2023-04-27T06:22:36.553Z,11.91
2023-04-27T06:23:36.884Z,11.83
2023-04-27T06:24:36.553Z,11.89
2023-04-27T06:25:36.467Z,12.02
2023-04-27T06:26:36.464Z,12.02
2023-04-27T06:27:36.441Z,12.14
2023-04-27T06:28:36.453Z,12.23
2023-04-27T06:29:36.504Z,12.17
2023-04-27T06:30:37.645Z,12.12
2023-04-27T06:31:36.519Z,12.14
2023-04-27T06:32:36.431Z,12.14
2023-04-27T06:33:36.427Z,12.20
2023-04-27T06:34:36.402Z,12.26
2023-04-27T06:35:36.400Z,12.37
2023-04-27T06:36:36.367Z,12.37
2023-04-27T06:37:36.382Z,12.35
2023-04-27T06:38:36.380Z,12.35
2023-04-27T06:39:36.368Z,12.29
2023-04-27T06:40:36.367Z,12.33
2023-04-27T06:41:36.440Z,12.45
2023-04-27T06:42:36.425Z,12.47
2023-04-27T06:43:36.367Z,12.51
2023-04-27T06:44:36.260Z,12.51
2023-04-27T06:45:36.359Z,12.39
2023-04-27T06:46:36.449Z,12.48
2023-04-27T06:47:36.327Z,12.45
2023-04-27T06:48:36.248Z,12.48
2023-04-27T06:49:36.219Z,12.43
2023-04-27T06:50:36.337Z,12.39
2023-04-27T06:51:36.254Z,12.50
2023-04-27T06:52:36.261Z,12.48
2023-04-27T06:53:36.216Z,12.40
2023-04-27T06:54:36.185Z,12.43
2023-04-27T06:55:36.185Z,12.50
2023-04-27T06:56:36.192Z,12.58
2023-04-27T06:57:36.143Z,12.69
2023-04-27T06:58:36.142Z,12.69
2023-04-27T06:59:36.192Z,12.72
2023-04-27T07:00:36.140Z,12.73
2023-04-27T07:01:36.201Z,12.70
2023-04-27T07:02:36.250Z,12.63
2023-04-27T07:03:36.252Z,12.61
2023-04-27T07:04:36.145Z,12.61
2023-04-27T07:05:36.257Z,12.70
2023-04-27T07:06:36.098Z,12.78
2023-04-27T07:07:36.047Z,12.81
2023-04-27T07:08:36.097Z,12.91
2023-04-27T07:09:36.066Z,13.02
2023-04-27T07:10:36.116Z,13.11
2023-04-27T07:11:35.986Z,13.20
2023-04-27T07:12:35.995Z,13.30
2023-04-27T07:13:36.073Z,13.42
2023-04-27T07:14:36.013Z,13.50
2023-04-27T07:15:35.928Z,13.57
2023-04-27T07:16:35.990Z,13.61
2023-04-27T07:17:35.995Z,13.64
2023-04-27T07:18:35.909Z,13.67
2023-04-27T07:19:35.954Z,13.78
2023-04-27T07:20:35.888Z,13.82
2023-04-27T07:21:35.837Z,13.85
2023-04-27T07:22:35.850Z,13.89
2023-04-27T07:23:35.849Z,13.97
2023-04-27T07:24:36.009Z,14.05
2023-04-27T07:25:35.943Z,14.12
2023-04-27T07:26:35.817Z,14.12
2023-04-27T07:27:35.880Z,14.16
2023-04-27T07:28:35.852Z,14.26
2023-04-27T07:29:35.810Z,14.37
2023-04-27T07:30:35.879Z,14.45
2023-04-27T07:31:35.859Z,14.59
2023-04-27T07:32:35.848Z,14.66
2023-04-27T07:33:35.891Z,14.74
2023-04-27T07:34:48.913Z,14.87
2023-04-27T07:35:36.700Z,14.94
2023-04-27T07:36:35.719Z,14.96
2023-04-27T07:37:35.912Z,15.04
2023-04-27T07:38:35.703Z,15.14
2023-04-27T07:39:35.645Z,15.22
2023-04-27T07:40:35.627Z,15.32
2023-04-27T07:41:35.684Z,15.51
2023-04-27T07:42:35.659Z,15.57
2023-04-27T07:43:35.622Z,15.62
2023-04-27T07:44:35.629Z,15.73
2023-04-27T07:45:35.644Z,15.88
2023-04-27T07:46:35.561Z,16.00
2023-04-27T07:47:35.716Z,16.13
2023-04-27T07:48:35.622Z,16.24
2023-04-27T07:49:35.577Z,16.36
2023-04-27T07:50:35.606Z,16.50
2023-04-27T07:51:35.512Z,16.62
2023-04-27T07:52:35.641Z,16.65
2023-04-27T07:53:35.749Z,16.79
2023-04-27T07:54:35.640Z,16.94
2023-04-27T07:55:35.605Z,17.07
2023-04-27T07:56:35.490Z,17.13
2023-04-27T07:57:35.626Z,17.16
2023-04-27T07:58:35.437Z,17.20
2023-04-27T07:59:35.490Z,17.31
2023-04-27T08:00:35.450Z,17.38
2023-04-27T08:01:35.519Z,17.46
2023-04-27T08:02:35.515Z,17.59
2023-04-27T08:03:35.591Z,17.76
2023-04-27T08:04:35.888Z,17.87
2023-04-27T08:05:36.217Z,17.94
2023-04-27T08:06:36.144Z,17.98
2023-04-27T08:07:39.533Z,18.09
2023-04-27T08:08:36.470Z,18.23
2023-04-27T08:09:35.394Z,18.37
2023-04-27T08:10:35.321Z,18.52
2023-04-27T08:11:35.317Z,18.67
2023-04-27T08:12:35.294Z,18.78
2023-04-27T08:13:35.266Z,18.89
2023-04-27T08:14:35.279Z,18.98
2023-04-27T08:15:35.293Z,19.17
2023-04-27T08:16:35.601Z,19.26
2023-04-27T08:17:35.399Z,19.37
2023-04-27T08:18:35.298Z,19.39
2023-04-27T08:19:35.286Z,19.39
2023-04-27T08:20:35.214Z,19.39
2023-04-27T08:21:35.193Z,19.48
2023-04-27T08:22:35.195Z,19.57
2023-04-27T08:23:35.141Z,19.70
2023-04-27T08:24:35.240Z,19.82
2023-04-27T08:25:35.285Z,19.94
2023-04-27T08:26:35.280Z,20.10
2023-04-27T08:27:35.236Z,20.14
2023-04-27T08:28:35.181Z,20.17
2023-04-27T08:29:35.204Z,20.29
2023-04-27T08:30:35.387Z,20.40
2023-04-27T08:31:35.143Z,20.53
2023-04-27T08:32:35.144Z,20.63
2023-04-27T08:33:35.366Z,20.63
2023-04-27T08:34:35.085Z,20.67
2023-04-27T08:35:35.229Z,20.75
2023-04-27T08:36:35.039Z,20.82
2023-04-27T08:37:35.049Z,20.92
2023-04-27T08:38:35.007Z,21.00
2023-04-27T08:39:34.994Z,21.05
2023-04-27T08:40:34.993Z,21.11
2023-04-27T08:41:34.945Z,21.19
2023-04-27T08:42:35.168Z,21.15
2023-04-27T08:43:34.965Z,21.17
2023-04-27T08:44:34.972Z,21.15
2023-04-27T08:45:34.923Z,21.19
2023-04-27T08:46:35.105Z,21.26
2023-04-27T08:47:42.500Z,21.33
2023-04-27T08:48:35.881Z,21.38
2023-04-27T08:49:34.899Z,21.45
2023-04-27T08:50:34.980Z,21.45
2023-04-27T08:51:34.856Z,21.47
2023-04-27T08:52:34.885Z,21.47
2023-04-27T08:53:34.828Z,21.54
2023-04-27T08:54:34.850Z,21.60
2023-04-27T08:55:34.945Z,21.59
2023-04-27T08:56:34.828Z,21.53
2023-04-27T08:57:34.944Z,21.63
2023-04-27T08:58:34.795Z,21.75
2023-04-27T08:59:34.774Z,21.81
2023-04-27T09:00:34.765Z,21.84
2023-04-27T09:01:34.900Z,21.89
2023-04-27T09:02:35.107Z,21.96
2023-04-27T09:03:35.031Z,21.99
2023-04-27T09:04:34.851Z,22.03
2023-04-27T09:05:34.818Z,22.06
2023-04-27T09:06:34.792Z,22.14
2023-04-27T09:07:35.149Z,22.21
2023-04-27T09:08:34.713Z,22.25
2023-04-27T09:09:34.718Z,22.25
2023-04-27T09:10:34.713Z,22.33
2023-04-27T09:11:34.671Z,22.44
2023-04-27T09:12:34.819Z,22.55
2023-04-27T09:13:34.662Z,22.70
2023-04-27T09:14:34.677Z,22.88
2023-04-27T09:15:34.573Z,23.11
2023-04-27T09:16:34.684Z,23.25
2023-04-27T09:17:34.640Z,23.29
2023-04-27T09:18:34.605Z,23.29
2023-04-27T09:19:34.603Z,23.07
2023-04-27T09:20:34.571Z,23.16
2023-04-27T09:21:34.686Z,23.29
2023-04-27T09:22:34.597Z,23.42
2023-04-27T09:23:34.498Z,23.40
2023-04-27T09:24:34.649Z,23.48
2023-04-27T09:25:34.520Z,23.62
2023-04-27T09:26:34.477Z,23.64
2023-04-27T09:27:34.516Z,23.76
2023-04-27T09:28:34.450Z,23.99
2023-04-27T09:29:34.430Z,24.16
2023-04-27T09:30:34.737Z,24.19
2023-04-27T09:31:34.520Z,24.34
2023-04-27T09:32:34.494Z,24.46
2023-04-27T09:33:34.412Z,24.55
2023-04-27T09:34:34.399Z,24.61
2023-04-27T09:35:34.400Z,24.55
2023-04-27T09:36:34.390Z,24.41
2023-04-27T09:37:34.381Z,24.32
2023-04-27T09:38:34.403Z,24.14
2023-04-27T09:39:34.341Z,24.18
2023-04-27T09:40:34.592Z,24.10
2023-04-27T09:41:34.530Z,24.14
2023-04-27T09:42:34.314Z,24.22
2023-04-27T09:43:34.328Z,24.26
2023-04-27T09:44:34.276Z,24.22
2023-04-27T09:45:34.342Z,24.10
2023-04-27T09:46:34.396Z,24.09
2023-04-27T09:47:34.275Z,24.13
2023-04-27T09:48:34.252Z,24.00
2023-04-27T09:49:34.224Z,23.71
2023-04-27T09:50:34.977Z,23.74
2023-04-27T09:51:34.192Z,23.89
2023-04-27T09:52:34.176Z,24.01
2023-04-27T09:53:34.196Z,24.11
2023-04-27T09:54:34.197Z,24.10
2023-04-27T09:55:34.159Z,24.09
2023-04-27T09:56:34.155Z,23.89
2023-04-27T09:57:34.165Z,23.63
2023-04-27T09:58:34.143Z,23.51
2023-04-27T09:59:34.117Z,23.55
2023-04-27T10:00:34.176Z,23.56
2023-04-27T10:01:37.121Z,23.58
2023-04-27T10:02:46.220Z,23.64
2023-04-27T10:03:35.109Z,23.71
2023-04-27T10:04:40.257Z,23.74
2023-04-27T10:05:34.048Z,23.69
2023-04-27T10:06:34.068Z,23.58
2023-04-27T10:07:34.170Z,23.45
2023-04-27T10:08:34.013Z,23.40
2023-04-27T10:09:34.000Z,23.34
2023-04-27T10:10:34.031Z,23.33
2023-04-27T10:11:34.040Z,23.44
2023-04-27T10:12:34.011Z,23.48
2023-04-27T10:13:34.020Z,23.49
2023-04-27T10:14:33.952Z,23.51
2023-04-27T10:15:33.921Z,23.52
2023-04-27T10:16:33.949Z,23.62
2023-04-27T10:17:34.052Z,23.63
2023-04-27T10:18:33.882Z,23.58
2023-04-27T10:19:33.881Z,23.48
2023-04-27T10:20:33.964Z,23.42
2023-04-27T10:21:33.877Z,23.29
2023-04-27T10:22:34.504Z,23.20
2023-04-27T10:23:33.957Z,22.91
2023-04-27T10:24:33.857Z,22.68
2023-04-27T10:25:33.828Z,22.59
2023-04-27T10:26:35.757Z,22.33
2023-04-27T10:27:33.784Z,22.18
2023-04-27T10:28:33.808Z,21.92
2023-04-27T10:29:33.816Z,22.03
2023-04-27T10:30:33.893Z,21.92
2023-04-27T10:31:33.843Z,21.94
2023-04-27T10:32:33.800Z,22.06
2023-04-27T10:33:33.769Z,22.10
2023-04-27T10:34:33.715Z,22.08
2023-04-27T10:35:33.747Z,22.07
2023-04-27T10:36:33.717Z,21.92
2023-04-27T10:37:33.696Z,21.85
2023-04-27T10:38:33.678Z,21.78
2023-04-27T10:39:46.290Z,21.78
2023-04-27T10:40:34.674Z,21.81
2023-04-27T10:41:33.698Z,21.81
2023-04-27T10:42:33.697Z,21.81
2023-04-27T10:43:33.638Z,21.88
2023-04-27T10:44:33.602Z,21.92
2023-04-27T10:45:33.650Z,21.92
2023-04-27T10:46:33.625Z,22.03
2023-04-27T10:47:33.669Z,22.00
2023-04-27T10:48:33.566Z,22.00
2023-04-27T10:49:33.550Z,22.03
2023-04-27T10:50:33.550Z,22.07
2023-04-27T10:51:33.547Z,22.12
2023-04-27T10:52:33.525Z,22.14
2023-04-27T10:53:33.597Z,22.16
2023-04-27T10:54:33.503Z,22.22
2023-04-27T10:55:33.576Z,22.34
2023-04-27T10:56:33.587Z,22.40
2023-04-27T10:57:33.481Z,22.46
2023-04-27T10:58:45.342Z,22.77
2023-04-27T10:59:34.547Z,23.10
2023-04-27T11:00:33.457Z,23.42
2023-04-27T11:01:33.458Z,23.63
2023-04-27T11:02:33.687Z,23.86
2023-04-27T11:03:33.575Z,23.91
2023-04-27T11:04:33.579Z,23.91
2023-04-27T11:05:34.796Z,24.10
2023-04-27T11:06:33.357Z,24.03
2023-04-27T11:07:33.465Z,23.94
2023-04-27T11:08:33.400Z,24.01
2023-04-27T11:09:33.412Z,23.85
2023-04-27T11:10:33.348Z,23.26
2023-04-27T11:11:33.404Z,23.49
2023-04-27T11:12:33.296Z,23.70
2023-04-27T11:13:33.395Z,23.49
2023-04-27T11:14:33.565Z,22.91
2023-04-27T11:15:33.403Z,22.73
2023-04-27T11:16:33.479Z,23.73
2023-04-27T11:17:33.276Z,24.28
2023-04-27T11:18:33.310Z,24.25
2023-04-27T11:19:33.264Z,24.51
2023-04-27T11:20:33.292Z,24.66
2023-04-27T11:21:33.270Z,25.03
2023-04-27T11:22:33.218Z,25.11
2023-04-27T11:23:33.282Z,25.18
2023-04-27T11:24:33.212Z,25.34
2023-04-27T11:25:33.188Z,25.36
2023-04-27T11:26:33.170Z,25.39
2023-04-27T11:27:33.250Z,25.44
2023-04-27T11:28:33.157Z,25.40
2023-04-27T11:29:34.624Z,25.34
2023-04-27T11:30:33.085Z,25.41
2023-04-27T11:31:33.247Z,25.54
2023-04-27T11:32:33.143Z,25.61
2023-04-27T11:33:33.140Z,25.62
2023-04-27T11:34:33.112Z,25.59
2023-04-27T11:35:33.099Z,25.59
2023-04-27T11:36:33.139Z,25.51
2023-04-27T11:37:33.181Z,25.37
2023-04-27T11:38:33.114Z,25.30
2023-04-27T11:39:33.025Z,25.12
2023-04-27T11:40:33.020Z,25.25
2023-04-27T11:41:33.001Z,25.41
2023-04-27T11:42:33.000Z,25.41
2023-04-27T11:43:32.957Z,25.41
2023-04-27T11:44:32.982Z,25.48
2023-04-27T11:45:33.019Z,25.59
2023-04-27T11:46:32.968Z,25.67
2023-04-27T11:47:32.937Z,25.96
2023-04-27T11:48:33.239Z,26.18
2023-04-27T11:49:32.907Z,26.27
2023-04-27T11:50:32.900Z,26.36
2023-04-27T11:51:33.048Z,26.44
2023-04-27T11:52:32.946Z,26.45
2023-04-27T11:53:32.894Z,26.63
2023-04-27T11:54:32.858Z,26.83
2023-04-27T11:55:33.044Z,27.04
2023-04-27T11:56:32.835Z,27.19
2023-04-27T11:57:32.844Z,27.50
2023-04-27T11:58:32.894Z,27.72
2023-04-27T11:59:32.801Z,27.83
2023-04-27T12:00:32.824Z,28.04
2023-04-27T12:01:37.488Z,28.25
2023-04-27T12:02:33.828Z,28.64
2023-04-27T12:03:33.018Z,28.71
2023-04-27T12:04:33.178Z,28.83
2023-04-27T12:05:33.009Z,28.94
2023-04-27T12:06:33.639Z,28.89
2023-04-27T12:07:32.762Z,28.86
2023-04-27T12:08:32.757Z,28.75
2023-04-27T12:09:32.697Z,28.82
2023-04-27T12:10:32.681Z,28.90
2023-04-27T12:11:32.792Z,29.09
2023-04-27T12:12:32.649Z,29.40
2023-04-27T12:13:32.828Z,29.64
2023-04-27T12:14:32.736Z,29.95
2023-04-27T12:15:32.733Z,30.05
2023-04-27T12:16:32.651Z,30.05
2023-04-27T12:17:32.785Z,29.80
2023-04-27T12:18:32.604Z,29.50
2023-04-27T12:19:32.628Z,29.42
2023-04-27T12:20:32.583Z,29.32
2023-04-27T12:21:32.592Z,29.39
2023-04-27T12:22:32.823Z,29.47
2023-04-27T12:23:32.550Z,29.52
2023-04-27T12:24:32.806Z,28.82
2023-04-27T12:25:32.572Z,29.07
2023-04-27T12:26:32.533Z,29.69
2023-04-27T12:27:32.499Z,29.28
2023-04-27T12:28:32.508Z,28.97
2023-04-27T12:29:32.480Z,27.94
2023-04-27T12:30:32.494Z,27.34
2023-04-27T12:31:32.541Z,27.28
2023-04-27T12:32:32.482Z,28.01
2023-04-27T12:33:32.440Z,28.30
2023-04-27T12:34:32.453Z,27.08
2023-04-27T12:35:32.472Z,26.29
2023-04-27T12:36:32.431Z,26.83
2023-04-27T12:37:32.465Z,27.28
2023-04-27T12:38:32.453Z,27.41
2023-04-27T12:39:32.383Z,27.19
2023-04-27T12:40:32.417Z,26.56
2023-04-27T12:41:32.344Z,26.41
2023-04-27T12:42:32.367Z,26.52
2023-04-27T12:43:32.382Z,26.76
2023-04-27T12:44:32.382Z,26.71
2023-04-27T12:45:32.310Z,26.60
2023-04-27T12:46:32.568Z,26.56
2023-04-27T12:47:50.360Z,26.73
2023-04-27T12:48:33.302Z,26.89
2023-04-27T12:49:32.267Z,27.13
2023-04-27T12:50:32.568Z,27.41
2023-04-27T12:51:32.231Z,27.60
2023-04-27T12:52:32.230Z,27.78
2023-04-27T12:53:32.283Z,27.88
2023-04-27T12:54:32.187Z,27.81
2023-04-27T12:55:34.474Z,27.76
2023-04-27T12:56:32.432Z,27.66
2023-04-27T12:57:32.201Z,27.57
2023-04-27T12:58:32.158Z,27.60
2023-04-27T12:59:32.159Z,27.72
2023-04-27T13:00:32.152Z,27.91
2023-04-27T13:01:32.165Z,27.97
2023-04-27T13:02:32.245Z,28.04
2023-04-27T13:03:32.158Z,28.10
2023-04-27T13:04:32.245Z,28.09